Terminal Aerodrome Forecast
Issued by NWS

Current Version | Previous Version | Text Only | Print | Product List | Glossary On
Versions: 1 2 3 4 5 6 7 8 9 10 11 12 13
000
FTUS44 KJAN 240532
TAFHKS
TAF
KHKS 240532Z 2406/2506 VRB04KT P6SM -RA VCTS SCT040CB BKN060
     FM240800 03003KT 5SM BR SCT040 SCT150
     FM241300 04007KT P6SM SCT050 BKN070=

USA.gov is the U.S. government's official web portal to all federal, state and local government web resources and services.